createdAt,value
2022-09-28T00:00:27.614Z,96.33
2022-09-28T00:05:31.826Z,96.10
2022-09-28T00:10:34.513Z,96.27
2022-09-28T00:15:37.176Z,96.45
2022-09-28T00:20:39.772Z,96.55
2022-09-28T00:25:42.364Z,96.96
2022-09-28T00:30:44.953Z,97.49
2022-09-28T00:35:47.584Z,97.65
2022-09-28T00:40:50.332Z,97.99
2022-09-28T00:46:04.384Z,98.14
2022-09-28T00:51:10.734Z,98.49
2022-09-28T00:56:19.145Z,98.62
2022-09-28T01:01:22.042Z,98.93
2022-09-28T01:06:28.190Z,98.95
2022-09-28T01:11:33.216Z,98.90
2022-09-28T01:16:44.439Z,98.46
2022-09-28T01:22:07.926Z,97.99
2022-09-28T01:27:28.154Z,97.32
2022-09-28T01:32:41.925Z,96.72
2022-09-28T01:37:52.203Z,96.43
2022-09-28T01:42:59.412Z,96.42
2022-09-28T01:48:06.409Z,96.11
2022-09-28T01:53:15.834Z,95.93
2022-09-28T01:58:33.128Z,96.19
2022-09-28T02:03:40.951Z,96.29
2022-09-28T02:08:51.713Z,96.35
2022-09-28T02:14:03.133Z,96.46
2022-09-28T02:19:07.244Z,96.34
2022-09-28T02:24:20.611Z,96.48
2022-09-28T02:29:24.460Z,96.45
2022-09-28T02:34:27.045Z,95.87
2022-09-28T02:39:29.761Z,95.63
2022-09-28T02:44:43.524Z,95.03
2022-09-28T02:50:07.673Z,94.18
2022-09-28T02:55:18.632Z,93.41
2022-09-28T03:00:23.142Z,92.30
2022-09-28T03:05:29.044Z,91.04
2022-09-28T03:10:49.852Z,90.26
2022-09-28T03:15:52.469Z,89.46
2022-09-28T03:20:55.205Z,89.01
2022-09-28T03:25:57.890Z,88.66
2022-09-28T03:31:00.511Z,88.12
2022-09-28T03:36:03.109Z,87.78
2022-09-28T03:41:05.843Z,87.16
2022-09-28T03:46:09.158Z,86.33
2022-09-28T03:51:12.587Z,86.60
2022-09-28T03:56:15.634Z,86.07
2022-09-28T04:01:18.502Z,85.73
2022-09-28T04:06:21.285Z,85.73
2022-09-28T04:11:24.318Z,85.24
2022-09-28T04:16:27.406Z,85.22
2022-09-28T04:21:30.287Z,84.94
2022-09-28T04:26:32.987Z,85.21
2022-09-28T04:31:50.245Z,85.36
2022-09-28T04:36:52.891Z,85.51
2022-09-28T04:41:55.511Z,85.95
2022-09-28T04:47:00.689Z,86.24
2022-09-28T04:52:07.257Z,86.34
2022-09-28T04:57:10.326Z,86.79
2022-09-28T05:02:15.350Z,86.40
2022-09-28T05:07:18.271Z,86.77
2022-09-28T05:12:21.524Z,86.57
2022-09-28T05:17:24.162Z,86.97
2022-09-28T05:22:26.810Z,87.39
2022-09-28T05:27:29.422Z,87.96
2022-09-28T05:32:32.100Z,88.35
2022-09-28T05:37:36.579Z,88.70
2022-09-28T05:42:39.836Z,89.24
2022-09-28T05:47:43.618Z,89.73
2022-09-28T05:52:46.889Z,89.94
2022-09-28T05:57:49.477Z,90.35
2022-09-28T06:03:06.747Z,90.88
2022-09-28T06:08:11.733Z,91.31
2022-09-28T06:13:14.438Z,91.49
2022-09-28T06:18:17.123Z,91.10
2022-09-28T06:23:19.804Z,90.44
2022-09-28T06:28:22.385Z,89.80
2022-09-28T06:33:26.696Z,89.09
2022-09-28T06:38:29.420Z,88.03
2022-09-28T06:43:34.565Z,87.33
2022-09-28T06:48:38.291Z,86.25
2022-09-28T06:53:40.865Z,84.57
2022-09-28T06:58:43.604Z,83.59
2022-09-28T07:03:46.826Z,83.87
2022-09-28T07:08:57.263Z,81.87
2022-09-28T07:14:25.220Z,81.26
2022-09-28T07:19:36.532Z,78.55
2022-09-28T07:24:39.885Z,78.86
2022-09-28T07:29:42.603Z,77.87
2022-09-28T07:34:45.251Z,77.84
2022-09-28T07:40:06.230Z,79.44
2022-09-28T07:45:09.232Z,79.51
2022-09-28T07:50:12.219Z,79.81
2022-09-28T07:55:15.253Z,79.14
2022-09-28T08:00:17.972Z,78.02
2022-09-28T08:05:20.701Z,77.31
2022-09-28T08:10:23.503Z,75.37
2022-09-28T08:15:26.119Z,75.62
2022-09-28T08:20:51.320Z,75.14
2022-09-28T08:25:54.707Z,75.86
2022-09-28T08:31:01.059Z,74.39
2022-09-28T08:36:07.000Z,75.32
2022-09-28T08:41:35.287Z,75.74
2022-09-28T08:46:46.030Z,74.76
2022-09-28T08:52:03.372Z,73.32
2022-09-28T08:57:10.446Z,72.30
2022-09-28T09:02:22.892Z,70.39
2022-09-28T09:07:44.715Z,69.38
2022-09-28T09:12:50.252Z,68.76
2022-09-28T09:18:37.489Z,69.39
2022-09-28T09:23:55.214Z,68.25
2022-09-28T09:29:07.843Z,66.45
2022-09-28T09:34:34.380Z,66.46
2022-09-28T09:39:39.612Z,65.01
2022-09-28T09:45:18.487Z,62.44
2022-09-28T09:50:30.742Z,61.83
2022-09-28T09:55:46.477Z,59.63
2022-09-28T10:00:52.637Z,60.92
2022-09-28T10:06:03.894Z,62.77
2022-09-28T10:11:45.567Z,63.00
2022-09-28T10:16:50.458Z,64.89
2022-09-28T10:21:53.305Z,66.28
2022-09-28T10:26:58.948Z,63.95
2022-09-28T10:32:02.924Z,63.50
2022-09-28T10:37:09.561Z,66.17
2022-09-28T10:42:17.945Z,66.26
2022-09-28T10:47:23.148Z,65.12
2022-09-28T10:52:42.694Z,63.91
2022-09-28T10:57:45.322Z,64.57
2022-09-28T11:02:48.066Z,64.69
2022-09-28T11:07:52.721Z,65.35
2022-09-28T11:12:55.815Z,64.19
2022-09-28T11:18:26.417Z,63.72
2022-09-28T11:23:31.128Z,63.17
2022-09-28T11:28:38.336Z,61.54
2022-09-28T11:33:46.793Z,60.53
2022-09-28T11:39:09.185Z,59.09
2022-09-28T11:44:44.606Z,59.25
2022-09-28T11:49:48.605Z,58.93
2022-09-28T11:54:56.284Z,57.38
2022-09-28T12:00:03.211Z,56.53
2022-09-28T12:05:20.652Z,56.12
2022-09-28T12:10:56.827Z,55.94
2022-09-28T12:21:36.928Z,57.65
2022-09-28T12:26:46.606Z,57.99
2022-09-28T12:32:13.014Z,58.74
2022-09-28T12:37:24.329Z,58.84
2022-09-28T12:42:57.296Z,59.37
2022-09-28T12:48:36.257Z,57.31
2022-09-28T12:53:57.717Z,57.34
2022-09-28T12:59:01.151Z,58.96
2022-09-28T13:04:45.145Z,62.23
2022-09-28T13:09:55.566Z,62.88
2022-09-28T13:15:21.810Z,62.99
2022-09-28T13:20:42.889Z,61.75
2022-09-28T13:25:57.065Z,61.31
2022-09-28T13:31:00.767Z,60.89
2022-09-28T13:36:24.716Z,61.69
2022-09-28T13:41:38.033Z,61.73
2022-09-28T13:47:25.704Z,60.93
2022-09-28T13:52:57.289Z,60.36
2022-09-28T13:58:24.535Z,59.83
2022-09-28T14:03:45.315Z,61.03
2022-09-28T14:09:14.101Z,61.32
2022-09-28T14:14:16.786Z,60.85
2022-09-28T14:19:20.747Z,60.39
2022-09-28T14:25:01.371Z,59.50
2022-09-28T14:30:07.954Z,59.75
2022-09-28T14:35:18.929Z,59.16
2022-09-28T14:41:10.190Z,59.08
2022-09-28T14:46:14.722Z,59.35
2022-09-28T14:51:37.955Z,59.96
2022-09-28T14:57:08.215Z,60.77
2022-09-28T15:02:10.806Z,61.00
2022-09-28T15:07:47.940Z,61.44
2022-09-28T15:12:53.453Z,62.46
2022-09-28T15:18:16.733Z,62.60
2022-09-28T15:23:34.721Z,62.03
2022-09-28T15:28:44.929Z,61.78
2022-09-28T15:34:06.538Z,62.22
2022-09-28T15:39:18.742Z,61.68
2022-09-28T15:44:34.289Z,62.36
2022-09-28T15:49:46.059Z,62.63
2022-09-28T15:54:49.096Z,62.64
2022-09-28T15:59:56.954Z,63.57
2022-09-28T16:05:05.626Z,63.86
2022-09-28T16:10:11.580Z,64.37
2022-09-28T16:15:27.406Z,65.57
2022-09-28T16:20:34.231Z,66.46
2022-09-28T16:25:39.449Z,66.39
2022-09-28T16:30:59.612Z,65.06
2022-09-28T16:36:03.341Z,65.21
2022-09-28T16:41:09.155Z,65.25
2022-09-28T16:46:15.734Z,66.22
2022-09-28T16:51:20.656Z,66.28
2022-09-28T16:56:23.308Z,66.11
2022-09-28T17:01:26.070Z,66.42
2022-09-28T17:06:28.874Z,66.85
2022-09-28T17:11:31.498Z,66.80
2022-09-28T17:17:07.794Z,67.86
2022-09-28T17:21:58.780Z,68.82
2022-09-28T17:27:03.258Z,69.37
2022-09-28T17:32:16.977Z,69.61
2022-09-28T17:37:19.690Z,69.21
2022-09-28T17:42:22.574Z,68.50
2022-09-28T17:47:25.169Z,68.48
2022-09-28T17:52:27.869Z,67.74
2022-09-28T17:57:30.545Z,68.15
2022-09-28T18:02:33.829Z,69.32
2022-09-28T18:07:38.222Z,70.89
2022-09-28T18:12:41.267Z,72.37
2022-09-28T18:17:44.301Z,73.71
2022-09-28T18:22:47.057Z,75.29
2022-09-28T18:27:49.755Z,77.02
2022-09-28T18:32:52.700Z,78.13
2022-09-28T18:37:55.579Z,79.56
2022-09-28T18:42:58.410Z,80.48
2022-09-28T18:48:01.372Z,81.24
2022-09-28T18:53:13.254Z,81.90
2022-09-28T18:58:15.963Z,83.00
2022-09-28T19:03:18.926Z,83.97
2022-09-28T19:08:25.513Z,85.00
2022-09-28T19:13:30.275Z,85.99
2022-09-28T19:18:33.943Z,87.07
2022-09-28T19:23:37.151Z,87.59
2022-09-28T19:28:40.023Z,88.54
2022-09-28T19:33:42.713Z,89.17
2022-09-28T19:38:45.703Z,89.75
2022-09-28T19:43:48.461Z,90.45
2022-09-28T19:48:51.128Z,90.86
2022-09-28T19:53:53.680Z,91.62
2022-09-28T19:58:57.064Z,92.29
2022-09-28T20:04:00.381Z,92.65
2022-09-28T20:09:03.552Z,93.36
2022-09-28T20:14:10.631Z,93.91
2022-09-28T20:19:13.523Z,94.31
2022-09-28T20:24:17.266Z,94.98
2022-09-28T20:29:20.422Z,95.45
2022-09-28T20:34:23.020Z,95.91
2022-09-28T20:39:25.686Z,96.25
2022-09-28T20:44:28.413Z,96.73
2022-09-28T20:49:32.061Z,96.95
2022-09-28T20:54:34.641Z,97.46
2022-09-28T20:59:37.440Z,97.67
2022-09-28T21:04:41.377Z,98.23
2022-09-28T21:09:43.953Z,98.47
2022-09-28T21:14:46.800Z,99.08
2022-09-28T21:19:50.018Z,99.12
2022-09-28T21:24:52.608Z,99.43
2022-09-28T21:29:55.195Z,99.75
2022-09-28T21:34:58.344Z,99.99
2022-09-28T21:40:02.548Z,99.87
2022-09-28T21:45:05.661Z,100.00
2022-09-28T21:50:08.710Z,100.00
2022-09-28T21:55:11.344Z,100.00
2022-09-28T22:00:16.425Z,100.00
2022-09-28T22:05:19.293Z,100.00
2022-09-28T22:10:21.934Z,100.00
2022-09-28T22:15:24.586Z,100.00
2022-09-28T22:20:27.648Z,100.00
2022-09-28T22:25:30.274Z,100.00
2022-09-28T22:30:34.488Z,100.00
2022-09-28T22:35:37.079Z,100.00
2022-09-28T22:40:47.184Z,100.00
2022-09-28T22:45:50.369Z,100.00
2022-09-28T22:50:53.099Z,100.00
2022-09-28T22:55:56.720Z,100.00
2022-09-28T23:01:29.795Z,100.00
2022-09-28T23:06:33.236Z,100.00
2022-09-28T23:11:35.825Z,100.00
2022-09-28T23:16:38.373Z,100.00
2022-09-28T23:21:41.502Z,100.00
2022-09-28T23:26:44.127Z,100.00
2022-09-28T23:31:46.785Z,100.00
2022-09-28T23:36:52.044Z,100.00
2022-09-28T23:41:54.612Z,100.00
2022-09-28T23:46:57.906Z,100.00
2022-09-28T23:52:01.180Z,100.00
2022-09-28T23:57:03.812Z,100.00
